Ralph Wenz Field


Codes: KPNA/
Name: Ralph Wenz Field
City: Pinedale
Country: United States
Elevation: 7102 ft.

Photos at Ralph Wenz Field


   Photos courtesy of SpottingLog. You can add your own sightings and photos by signing up for a free trial today.



No photos found.

Weather at Ralph Wenz Field


Time (UTC)DescriptionTempratureWindCloud coverageVisibilityPressureHumidity
16-Jun-2024 09:00Clear Sky7°C7 mph, NW0%10000m1017hPa65%
16-Jun-2024 12:00Few Clouds7°C2 mph, N15%10000m1015hPa64%
16-Jun-2024 15:00Few Clouds10°C4 mph, NW21%10000m1012hPa43%
16-Jun-2024 18:00Broken Clouds18°C13 mph, W56%10000m1007hPa26%
16-Jun-2024 21:00Overcast Clouds20°C18 mph, W99%10000m1004hPa24%
17-Jun-2024 00:00Overcast Clouds20°C16 mph, W99%10000m1002hPa23%
17-Jun-2024 03:00Overcast Clouds13°C7 mph, NW99%10000m1004hPa42%
17-Jun-2024 06:00Overcast Clouds12°C2 mph, E99%10000m1003hPa40%
17-Jun-2024 09:00Overcast Clouds9°C0 mph, SW100%10000m1003hPa47%
17-Jun-2024 12:00Overcast Clouds9°C4 mph, SE95%10000m1002hPa49%
17-Jun-2024 15:00Overcast Clouds14°C4 mph, S100%10000m1000hPa35%
17-Jun-2024 18:00Overcast Clouds19°C20 mph, SW100%10000m996hPa21%
17-Jun-2024 21:00Overcast Clouds20°C22 mph, SW100%10000m994hPa23%
18-Jun-2024 00:00Overcast Clouds16°C25 mph, NW89%10000m997hPa37%
18-Jun-2024 03:00Overcast Clouds5°C18 mph, NW91%10000m1006hPa56%
18-Jun-2024 06:00Light Rain3°C13 mph, NW94%10000m1011hPa53%
18-Jun-2024 09:00Broken Clouds2°C4 mph, SW70%10000m1012hPa63%
18-Jun-2024 12:00Scattered Clouds-0°C2 mph, NW46%10000m1015hPa71%
18-Jun-2024 15:00Few Clouds5°C7 mph, W18%10000m1013hPa50%
18-Jun-2024 18:00Broken Clouds10°C9 mph, W51%10000m1012hPa27%
18-Jun-2024 21:00Overcast Clouds12°C16 mph, W98%10000m1011hPa21%
19-Jun-2024 00:00Overcast Clouds13°C11 mph, NW99%10000m1011hPa18%
19-Jun-2024 03:00Overcast Clouds8°C9 mph, NW100%10000m1014hPa31%
19-Jun-2024 06:00Overcast Clouds5°C7 mph, NW100%10000m1017hPa36%
19-Jun-2024 09:00Broken Clouds2°C2 mph, N56%10000m1019hPa43%
19-Jun-2024 12:00Scattered Clouds2°C0 mph, N47%10000m1019hPa53%
19-Jun-2024 15:00Clear Sky9°C4 mph, SE1%10000m1018hPa36%
19-Jun-2024 18:00Clear Sky14°C4 mph, SW0%10000m1017hPa20%
19-Jun-2024 21:00Broken Clouds17°C2 mph, SE64%10000m1014hPa18%
20-Jun-2024 00:00Broken Clouds19°C13 mph, W70%10000m1012hPa18%
20-Jun-2024 03:00Overcast Clouds14°C4 mph, N98%10000m1014hPa29%
20-Jun-2024 06:00Overcast Clouds12°C4 mph, NE99%10000m1016hPa29%
20-Jun-2024 09:00Overcast Clouds11°C2 mph, N99%10000m1016hPa31%
20-Jun-2024 12:00Broken Clouds8°C4 mph, N68%10000m1017hPa37%
20-Jun-2024 15:00Broken Clouds17°C2 mph, SW83%10000m1015hPa23%
20-Jun-2024 18:00Broken Clouds22°C4 mph, SW76%10000m1013hPa18%
20-Jun-2024 21:00Broken Clouds24°C11 mph, SW61%10000m1011hPa18%
21-Jun-2024 00:00Broken Clouds20°C11 mph, NE77%10000m1011hPa33%
21-Jun-2024 03:00Light Rain14°C11 mph, NE72%10000m1015hPa61%
21-Jun-2024 06:00Broken Clouds12°C4 mph, N58%10000m1016hPa63%